sensor_id;sensor_type;location;lat;lon;timestamp;P1;durP1;ratioP1;P2;durP2;ratioP2
29984;SDS011;17387;42.690;23.328;2022-07-10T00:01:12;23.00;;;20.40;;
29984;SDS011;17387;42.690;23.328;2022-07-10T00:03:37;24.65;;;20.15;;
29984;SDS011;17387;42.690;23.328;2022-07-10T00:06:03;24.23;;;21.13;;
29984;SDS011;17387;42.690;23.328;2022-07-10T00:08:29;23.05;;;20.75;;
29984;SDS011;17387;42.690;23.328;2022-07-10T00:10:54;22.92;;;20.50;;
29984;SDS011;17387;42.690;23.328;2022-07-10T00:13:20;22.40;;;20.05;;
29984;SDS011;17387;42.690;23.328;2022-07-10T00:15:45;22.92;;;20.70;;
29984;SDS011;17387;42.690;23.328;2022-07-10T00:18:11;22.60;;;20.30;;
29984;SDS011;17387;42.690;23.328;2022-07-10T00:20:36;22.55;;;20.02;;
29984;SDS011;17387;42.690;23.328;2022-07-10T00:23:02;23.00;;;20.42;;
29984;SDS011;17387;42.690;23.328;2022-07-10T00:25:27;23.10;;;20.63;;
29984;SDS011;17387;42.690;23.328;2022-07-10T00:27:53;23.08;;;20.60;;
29984;SDS011;17387;42.690;23.328;2022-07-10T00:30:19;24.20;;;21.60;;
29984;SDS011;17387;42.690;23.328;2022-07-10T00:32:44;24.95;;;21.90;;
29984;SDS011;17387;42.690;23.328;2022-07-10T00:35:09;24.35;;;21.50;;
29984;SDS011;17387;42.690;23.328;2022-07-10T00:37:35;23.58;;;21.08;;
29984;SDS011;17387;42.690;23.328;2022-07-10T00:40:01;22.92;;;20.23;;
29984;SDS011;17387;42.690;23.328;2022-07-10T00:42:29;23.58;;;21.05;;
29984;SDS011;17387;42.690;23.328;2022-07-10T00:44:55;23.58;;;21.08;;
29984;SDS011;17387;42.690;23.328;2022-07-10T00:47:20;23.75;;;21.15;;
29984;SDS011;17387;42.690;23.328;2022-07-10T00:49:46;24.27;;;21.67;;
29984;SDS011;17387;42.690;23.328;2022-07-10T00:52:13;24.52;;;21.45;;
29984;SDS011;17387;42.690;23.328;2022-07-10T00:54:44;24.02;;;21.30;;
29984;SDS011;17387;42.690;23.328;2022-07-10T00:57:12;26.05;;;22.30;;
29984;SDS011;17387;42.690;23.328;2022-07-10T00:59:41;23.42;;;21.13;;
29984;SDS011;17387;42.690;23.328;2022-07-10T01:02:08;23.08;;;20.67;;
29984;SDS011;17387;42.690;23.328;2022-07-10T01:04:34;22.90;;;20.42;;
29984;SDS011;17387;42.690;23.328;2022-07-10T01:07:01;22.60;;;20.20;;
29984;SDS011;17387;42.690;23.328;2022-07-10T01:09:27;22.00;;;19.83;;
29984;SDS011;17387;42.690;23.328;2022-07-10T01:11:56;23.08;;;20.08;;
29984;SDS011;17387;42.690;23.328;2022-07-10T01:14:22;21.92;;;19.58;;
29984;SDS011;17387;42.690;23.328;2022-07-10T01:16:47;21.80;;;19.70;;
29984;SDS011;17387;42.690;23.328;2022-07-10T01:19:14;22.73;;;19.35;;
29984;SDS011;17387;42.690;23.328;2022-07-10T01:21:39;23.20;;;19.20;;
29984;SDS011;17387;42.690;23.328;2022-07-10T01:24:06;22.80;;;19.60;;
29984;SDS011;17387;42.690;23.328;2022-07-10T01:26:32;21.20;;;19.00;;
29984;SDS011;17387;42.690;23.328;2022-07-10T01:29:00;22.25;;;19.60;;
29984;SDS011;17387;42.690;23.328;2022-07-10T01:31:28;21.60;;;18.40;;
29984;SDS011;17387;42.690;23.328;2022-07-10T01:33:54;20.75;;;18.80;;
29984;SDS011;17387;42.690;23.328;2022-07-10T01:36:20;21.98;;;19.60;;
29984;SDS011;17387;42.690;23.328;2022-07-10T01:38:46;22.08;;;19.88;;
29984;SDS011;17387;42.690;23.328;2022-07-10T01:41:13;23.38;;;19.33;;
29984;SDS011;17387;42.690;23.328;2022-07-10T01:43:38;20.20;;;18.20;;
29984;SDS011;17387;42.690;23.328;2022-07-10T01:46:07;23.70;;;19.02;;
29984;SDS011;17387;42.690;23.328;2022-07-10T01:48:36;21.23;;;18.85;;
29984;SDS011;17387;42.690;23.328;2022-07-10T01:51:02;21.90;;;19.73;;
29984;SDS011;17387;42.690;23.328;2022-07-10T01:53:27;23.38;;;20.30;;
29984;SDS011;17387;42.690;23.328;2022-07-10T01:55:53;21.75;;;19.17;;
29984;SDS011;17387;42.690;23.328;2022-07-10T01:58:18;20.75;;;18.58;;
29984;SDS011;17387;42.690;23.328;2022-07-10T02:00:44;23.35;;;18.58;;
29984;SDS011;17387;42.690;23.328;2022-07-10T02:03:10;20.63;;;18.52;;
29984;SDS011;17387;42.690;23.328;2022-07-10T02:05:54;23.42;;;19.13;;
29984;SDS011;17387;42.690;23.328;2022-07-10T02:08:19;23.88;;;19.30;;
29984;SDS011;17387;42.690;23.328;2022-07-10T02:10:45;21.67;;;19.55;;
29984;SDS011;17387;42.690;23.328;2022-07-10T02:13:10;23.30;;;18.65;;
29984;SDS011;17387;42.690;23.328;2022-07-10T02:15:39;21.83;;;19.45;;
29984;SDS011;17387;42.690;23.328;2022-07-10T02:18:05;20.98;;;18.67;;
29984;SDS011;17387;42.690;23.328;2022-07-10T02:20:30;21.45;;;18.98;;
29984;SDS011;17387;42.690;23.328;2022-07-10T02:22:58;21.42;;;19.13;;
29984;SDS011;17387;42.690;23.328;2022-07-10T02:25:23;21.45;;;19.27;;
29984;SDS011;17387;42.690;23.328;2022-07-10T02:27:49;20.85;;;18.70;;
29984;SDS011;17387;42.690;23.328;2022-07-10T02:30:14;20.55;;;18.55;;
29984;SDS011;17387;42.690;23.328;2022-07-10T02:32:40;22.95;;;19.90;;
29984;SDS011;17387;42.690;23.328;2022-07-10T02:35:05;22.63;;;20.20;;
29984;SDS011;17387;42.690;23.328;2022-07-10T02:37:31;21.25;;;19.13;;
29984;SDS011;17387;42.690;23.328;2022-07-10T02:39:56;21.52;;;19.25;;
29984;SDS011;17387;42.690;23.328;2022-07-10T02:42:22;21.73;;;19.48;;
29984;SDS011;17387;42.690;23.328;2022-07-10T02:44:47;21.20;;;19.05;;
29984;SDS011;17387;42.690;23.328;2022-07-10T02:47:12;23.20;;;20.15;;
29984;SDS011;17387;42.690;23.328;2022-07-10T02:49:38;21.50;;;19.27;;
29984;SDS011;17387;42.690;23.328;2022-07-10T02:52:03;21.92;;;19.63;;
29984;SDS011;17387;42.690;23.328;2022-07-10T02:54:30;21.05;;;18.48;;
29984;SDS011;17387;42.690;23.328;2022-07-10T02:56:55;22.65;;;20.25;;
29984;SDS011;17387;42.690;23.328;2022-07-10T02:59:20;24.85;;;20.90;;
29984;SDS011;17387;42.690;23.328;2022-07-10T03:01:46;21.55;;;19.45;;
29984;SDS011;17387;42.690;23.328;2022-07-10T03:04:11;20.90;;;18.70;;
29984;SDS011;17387;42.690;23.328;2022-07-10T03:06:37;20.30;;;18.35;;
29984;SDS011;17387;42.690;23.328;2022-07-10T03:09:02;20.25;;;18.10;;
29984;SDS011;17387;42.690;23.328;2022-07-10T03:11:28;20.83;;;18.15;;
29984;SDS011;17387;42.690;23.328;2022-07-10T03:13:53;20.05;;;17.95;;
29984;SDS011;17387;42.690;23.328;2022-07-10T03:16:19;21.08;;;17.73;;
29984;SDS011;17387;42.690;23.328;2022-07-10T03:18:44;20.23;;;18.15;;
29984;SDS011;17387;42.690;23.328;2022-07-10T03:21:10;19.85;;;17.85;;
29984;SDS011;17387;42.690;23.328;2022-07-10T03:23:36;23.40;;;17.75;;
29984;SDS011;17387;42.690;23.328;2022-07-10T03:26:04;19.25;;;17.30;;
29984;SDS011;17387;42.690;23.328;2022-07-10T03:28:30;20.75;;;17.55;;
29984;SDS011;17387;42.690;23.328;2022-07-10T03:30:56;19.00;;;16.90;;
29984;SDS011;17387;42.690;23.328;2022-07-10T03:33:21;19.20;;;17.35;;
29984;SDS011;17387;42.690;23.328;2022-07-10T03:35:47;20.48;;;17.50;;
29984;SDS011;17387;42.690;23.328;2022-07-10T03:38:12;20.55;;;17.05;;
29984;SDS011;17387;42.690;23.328;2022-07-10T03:40:37;23.02;;;17.13;;
29984;SDS011;17387;42.690;23.328;2022-07-10T03:43:03;18.30;;;16.40;;
29984;SDS011;17387;42.690;23.328;2022-07-10T03:45:28;20.30;;;17.20;;
29984;SDS011;17387;42.690;23.328;2022-07-10T03:47:54;19.10;;;17.27;;
29984;SDS011;17387;42.690;23.328;2022-07-10T03:50:19;19.27;;;16.75;;
29984;SDS011;17387;42.690;23.328;2022-07-10T03:52:45;18.90;;;16.90;;
29984;SDS011;17387;42.690;23.328;2022-07-10T03:55:11;21.33;;;17.55;;
29984;SDS011;17387;42.690;23.328;2022-07-10T03:57:37;21.50;;;17.08;;
29984;SDS011;17387;42.690;23.328;2022-07-10T04:00:25;17.95;;;16.08;;
29984;SDS011;17387;42.690;23.328;2022-07-10T04:03:09;18.25;;;16.23;;
29984;SDS011;17387;42.690;23.328;2022-07-10T04:05:35;20.42;;;16.50;;
29984;SDS011;17387;42.690;23.328;2022-07-10T04:08:02;18.60;;;16.67;;
29984;SDS011;17387;42.690;23.328;2022-07-10T04:10:28;18.27;;;16.25;;
29984;SDS011;17387;42.690;23.328;2022-07-10T04:12:55;17.27;;;15.52;;
29984;SDS011;17387;42.690;23.328;2022-07-10T04:15:21;17.20;;;15.40;;
29984;SDS011;17387;42.690;23.328;2022-07-10T04:17:47;16.92;;;14.88;;
29984;SDS011;17387;42.690;23.328;2022-07-10T04:20:14;17.15;;;15.13;;
29984;SDS011;17387;42.690;23.328;2022-07-10T04:22:40;15.73;;;14.13;;
29984;SDS011;17387;42.690;23.328;2022-07-10T04:25:05;17.08;;;15.27;;
29984;SDS011;17387;42.690;23.328;2022-07-10T04:27:31;16.13;;;14.48;;
29984;SDS011;17387;42.690;23.328;2022-07-10T04:29:57;15.60;;;13.98;;
29984;SDS011;17387;42.690;23.328;2022-07-10T04:32:22;16.90;;;14.32;;
29984;SDS011;17387;42.690;23.328;2022-07-10T04:34:48;14.90;;;13.40;;
29984;SDS011;17387;42.690;23.328;2022-07-10T04:37:13;15.88;;;13.70;;
29984;SDS011;17387;42.690;23.328;2022-07-10T04:39:39;14.57;;;13.18;;
29984;SDS011;17387;42.690;23.328;2022-07-10T04:42:07;14.80;;;13.30;;
29984;SDS011;17387;42.690;23.328;2022-07-10T04:44:34;14.55;;;12.43;;
29984;SDS011;17387;42.690;23.328;2022-07-10T04:47:01;15.73;;;14.13;;
29984;SDS011;17387;42.690;23.328;2022-07-10T04:49:26;15.07;;;13.30;;
29984;SDS011;17387;42.690;23.328;2022-07-10T04:51:52;16.33;;;13.63;;
29984;SDS011;17387;42.690;23.328;2022-07-10T04:54:17;14.82;;;12.65;;
29984;SDS011;17387;42.690;23.328;2022-07-10T04:56:43;13.85;;;12.35;;
29984;SDS011;17387;42.690;23.328;2022-07-10T04:59:09;15.88;;;13.48;;
29984;SDS011;17387;42.690;23.328;2022-07-10T05:01:35;16.42;;;13.73;;
29984;SDS011;17387;42.690;23.328;2022-07-10T05:04:02;15.63;;;13.07;;
29984;SDS011;17387;42.690;23.328;2022-07-10T05:06:27;19.17;;;13.30;;
29984;SDS011;17387;42.690;23.328;2022-07-10T05:08:53;14.10;;;12.57;;
29984;SDS011;17387;42.690;23.328;2022-07-10T05:11:20;14.10;;;12.65;;
29984;SDS011;17387;42.690;23.328;2022-07-10T05:13:45;16.45;;;13.10;;
29984;SDS011;17387;42.690;23.328;2022-07-10T05:16:13;14.45;;;12.45;;
29984;SDS011;17387;42.690;23.328;2022-07-10T05:18:41;14.77;;;11.88;;
29984;SDS011;17387;42.690;23.328;2022-07-10T05:21:07;13.70;;;12.32;;
29984;SDS011;17387;42.690;23.328;2022-07-10T05:23:33;12.05;;;10.77;;
29984;SDS011;17387;42.690;23.328;2022-07-10T05:25:59;13.65;;;11.38;;
29984;SDS011;17387;42.690;23.328;2022-07-10T05:28:25;13.60;;;12.20;;
29984;SDS011;17387;42.690;23.328;2022-07-10T05:30:50;13.40;;;11.15;;
29984;SDS011;17387;42.690;23.328;2022-07-10T05:33:16;13.45;;;11.50;;
29984;SDS011;17387;42.690;23.328;2022-07-10T05:35:42;14.15;;;12.32;;
29984;SDS011;17387;42.690;23.328;2022-07-10T05:38:07;15.52;;;11.38;;
29984;SDS011;17387;42.690;23.328;2022-07-10T05:40:32;12.98;;;11.48;;
29984;SDS011;17387;42.690;23.328;2022-07-10T05:42:58;12.35;;;10.75;;
29984;SDS011;17387;42.690;23.328;2022-07-10T05:45:24;15.25;;;11.82;;
29984;SDS011;17387;42.690;23.328;2022-07-10T05:47:49;14.10;;;10.65;;
29984;SDS011;17387;42.690;23.328;2022-07-10T05:50:15;11.38;;;9.90;;
29984;SDS011;17387;42.690;23.328;2022-07-10T05:52:41;12.80;;;10.00;;
29984;SDS011;17387;42.690;23.328;2022-07-10T05:55:07;11.00;;;9.80;;
29984;SDS011;17387;42.690;23.328;2022-07-10T05:57:33;11.57;;;10.13;;
29984;SDS011;17387;42.690;23.328;2022-07-10T05:59:58;10.52;;;9.52;;
29984;SDS011;17387;42.690;23.328;2022-07-10T06:02:23;12.15;;;9.63;;
29984;SDS011;17387;42.690;23.328;2022-07-10T06:04:49;11.55;;;9.75;;
29984;SDS011;17387;42.690;23.328;2022-07-10T06:07:15;12.20;;;9.52;;
29984;SDS011;17387;42.690;23.328;2022-07-10T06:09:40;10.77;;;9.32;;
29984;SDS011;17387;42.690;23.328;2022-07-10T06:12:06;10.20;;;8.82;;
29984;SDS011;17387;42.690;23.328;2022-07-10T06:14:32;9.52;;;8.27;;
29984;SDS011;17387;42.690;23.328;2022-07-10T06:16:57;16.25;;;8.98;;
29984;SDS011;17387;42.690;23.328;2022-07-10T06:19:23;11.25;;;8.80;;
29984;SDS011;17387;42.690;23.328;2022-07-10T06:21:48;8.80;;;8.00;;
29984;SDS011;17387;42.690;23.328;2022-07-10T06:24:34;10.20;;;7.95;;
29984;SDS011;17387;42.690;23.328;2022-07-10T06:26:59;9.52;;;8.50;;
29984;SDS011;17387;42.690;23.328;2022-07-10T06:29:24;10.77;;;8.40;;
29984;SDS011;17387;42.690;23.328;2022-07-10T06:31:50;9.55;;;7.55;;
29984;SDS011;17387;42.690;23.328;2022-07-10T06:34:16;7.93;;;7.10;;
29984;SDS011;17387;42.690;23.328;2022-07-10T06:36:41;8.13;;;7.32;;
29984;SDS011;17387;42.690;23.328;2022-07-10T06:39:07;12.02;;;7.35;;
29984;SDS011;17387;42.690;23.328;2022-07-10T06:41:32;7.53;;;6.70;;
29984;SDS011;17387;42.690;23.328;2022-07-10T06:43:58;11.23;;;7.10;;
29984;SDS011;17387;42.690;23.328;2022-07-10T06:46:25;9.57;;;7.50;;
29984;SDS011;17387;42.690;23.328;2022-07-10T06:48:51;9.93;;;7.18;;
29984;SDS011;17387;42.690;23.328;2022-07-10T06:51:17;8.07;;;7.28;;
29984;SDS011;17387;42.690;23.328;2022-07-10T06:53:43;9.15;;;6.85;;
29984;SDS011;17387;42.690;23.328;2022-07-10T06:56:08;8.60;;;6.65;;
29984;SDS011;17387;42.690;23.328;2022-07-10T06:58:34;9.27;;;6.65;;
29984;SDS011;17387;42.690;23.328;2022-07-10T07:00:59;9.98;;;7.03;;
29984;SDS011;17387;42.690;23.328;2022-07-10T07:03:24;8.13;;;6.90;;
29984;SDS011;17387;42.690;23.328;2022-07-10T07:05:50;8.07;;;6.05;;
29984;SDS011;17387;42.690;23.328;2022-07-10T07:08:15;9.02;;;6.10;;
29984;SDS011;17387;42.690;23.328;2022-07-10T07:10:41;7.43;;;6.50;;
29984;SDS011;17387;42.690;23.328;2022-07-10T07:13:06;7.82;;;7.03;;
29984;SDS011;17387;42.690;23.328;2022-07-10T07:15:34;11.10;;;6.85;;
29984;SDS011;17387;42.690;23.328;2022-07-10T07:18:03;6.93;;;6.22;;
29984;SDS011;17387;42.690;23.328;2022-07-10T07:20:37;9.30;;;7.00;;
29984;SDS011;17387;42.690;23.328;2022-07-10T07:23:22;7.60;;;6.85;;
29984;SDS011;17387;42.690;23.328;2022-07-10T07:25:48;10.55;;;7.03;;
29984;SDS011;17387;42.690;23.328;2022-07-10T07:28:14;8.52;;;7.32;;
29984;SDS011;17387;42.690;23.328;2022-07-10T07:30:41;7.45;;;6.75;;
29984;SDS011;17387;42.690;23.328;2022-07-10T07:33:07;10.10;;;6.97;;
29984;SDS011;17387;42.690;23.328;2022-07-10T07:35:33;9.45;;;6.90;;
29984;SDS011;17387;42.690;23.328;2022-07-10T07:37:58;8.40;;;6.75;;
29984;SDS011;17387;42.690;23.328;2022-07-10T07:40:24;7.82;;;6.80;;
29984;SDS011;17387;42.690;23.328;2022-07-10T07:42:49;8.48;;;6.43;;
29984;SDS011;17387;42.690;23.328;2022-07-10T07:45:16;8.13;;;6.57;;
29984;SDS011;17387;42.690;23.328;2022-07-10T07:47:52;8.48;;;6.35;;
29984;SDS011;17387;42.690;23.328;2022-07-10T07:50:23;9.73;;;6.30;;
29984;SDS011;17387;42.690;23.328;2022-07-10T07:55:17;8.45;;;5.47;;
29984;SDS011;17387;42.690;23.328;2022-07-10T07:57:44;12.02;;;5.50;;
29984;SDS011;17387;42.690;23.328;2022-07-10T08:00:10;9.13;;;5.50;;
29984;SDS011;17387;42.690;23.328;2022-07-10T08:02:37;8.20;;;5.07;;
29984;SDS011;17387;42.690;23.328;2022-07-10T08:05:02;5.72;;;4.72;;
29984;SDS011;17387;42.690;23.328;2022-07-10T08:07:49;5.53;;;5.03;;
29984;SDS011;17387;42.690;23.328;2022-07-10T08:10:17;5.43;;;4.40;;
29984;SDS011;17387;42.690;23.328;2022-07-10T08:12:44;7.63;;;5.40;;
29984;SDS011;17387;42.690;23.328;2022-07-10T08:15:11;5.78;;;4.53;;
29984;SDS011;17387;42.690;23.328;2022-07-10T08:17:37;8.45;;;4.93;;
29984;SDS011;17387;42.690;23.328;2022-07-10T08:20:04;5.47;;;4.65;;
29984;SDS011;17387;42.690;23.328;2022-07-10T08:22:30;9.13;;;4.68;;
29984;SDS011;17387;42.690;23.328;2022-07-10T08:24:56;9.25;;;4.90;;
29984;SDS011;17387;42.690;23.328;2022-07-10T08:27:22;8.85;;;4.57;;
29984;SDS011;17387;42.690;23.328;2022-07-10T08:29:48;6.70;;;4.70;;
29984;SDS011;17387;42.690;23.328;2022-07-10T08:32:14;5.18;;;4.68;;
29984;SDS011;17387;42.690;23.328;2022-07-10T08:34:39;6.93;;;4.30;;
29984;SDS011;17387;42.690;23.328;2022-07-10T08:37:04;6.72;;;4.32;;
29984;SDS011;17387;42.690;23.328;2022-07-10T08:39:30;8.38;;;4.90;;
29984;SDS011;17387;42.690;23.328;2022-07-10T08:41:56;4.80;;;3.92;;
29984;SDS011;17387;42.690;23.328;2022-07-10T08:44:22;6.00;;;4.18;;
29984;SDS011;17387;42.690;23.328;2022-07-10T08:46:48;5.55;;;4.28;;
29984;SDS011;17387;42.690;23.328;2022-07-10T08:49:14;6.55;;;3.70;;
29984;SDS011;17387;42.690;23.328;2022-07-10T08:51:47;4.20;;;3.80;;
29984;SDS011;17387;42.690;23.328;2022-07-10T08:54:19;6.45;;;4.00;;
29984;SDS011;17387;42.690;23.328;2022-07-10T08:56:45;8.98;;;4.00;;
29984;SDS011;17387;42.690;23.328;2022-07-10T08:59:12;6.30;;;3.85;;
29984;SDS011;17387;42.690;23.328;2022-07-10T09:01:39;8.98;;;4.88;;
29984;SDS011;17387;42.690;23.328;2022-07-10T09:04:05;8.55;;;4.60;;
29984;SDS011;17387;42.690;23.328;2022-07-10T09:06:30;6.55;;;4.32;;
29984;SDS011;17387;42.690;23.328;2022-07-10T09:11:24;4.80;;;4.20;;
29984;SDS011;17387;42.690;23.328;2022-07-10T09:13:54;5.13;;;3.90;;
29984;SDS011;17387;42.690;23.328;2022-07-10T09:16:30;4.47;;;3.80;;
29984;SDS011;17387;42.690;23.328;2022-07-10T09:21:50;6.30;;;4.20;;
29984;SDS011;17387;42.690;23.328;2022-07-10T09:24:17;5.80;;;4.15;;
29984;SDS011;17387;42.690;23.328;2022-07-10T09:26:47;9.60;;;4.68;;
29984;SDS011;17387;42.690;23.328;2022-07-10T09:29:24;6.20;;;3.97;;
29984;SDS011;17387;42.690;23.328;2022-07-10T09:31:53;4.32;;;3.90;;
29984;SDS011;17387;42.690;23.328;2022-07-10T09:37:26;6.18;;;4.25;;
29984;SDS011;17387;42.690;23.328;2022-07-10T09:47:41;4.28;;;3.72;;
29984;SDS011;17387;42.690;23.328;2022-07-10T09:50:20;5.13;;;3.70;;
29984;SDS011;17387;42.690;23.328;2022-07-10T09:53:00;8.18;;;3.60;;
29984;SDS011;17387;42.690;23.328;2022-07-10T09:55:28;6.20;;;4.03;;
29984;SDS011;17387;42.690;23.328;2022-07-10T09:57:56;9.50;;;4.25;;
29984;SDS011;17387;42.690;23.328;2022-07-10T10:00:24;5.75;;;3.90;;
29984;SDS011;17387;42.690;23.328;2022-07-10T10:02:56;6.13;;;3.45;;
29984;SDS011;17387;42.690;23.328;2022-07-10T10:05:35;7.55;;;3.67;;
29984;SDS011;17387;42.690;23.328;2022-07-10T10:11:07;5.97;;;3.65;;
29984;SDS011;17387;42.690;23.328;2022-07-10T10:13:37;7.82;;;3.40;;
29984;SDS011;17387;42.690;23.328;2022-07-10T10:16:03;5.50;;;3.67;;
29984;SDS011;17387;42.690;23.328;2022-07-10T10:18:33;5.55;;;3.00;;
29984;SDS011;17387;42.690;23.328;2022-07-10T10:20:59;9.32;;;3.20;;
29984;SDS011;17387;42.690;23.328;2022-07-10T10:23:26;6.28;;;3.28;;
29984;SDS011;17387;42.690;23.328;2022-07-10T10:25:54;4.72;;;3.17;;
29984;SDS011;17387;42.690;23.328;2022-07-10T10:28:21;5.85;;;3.83;;
29984;SDS011;17387;42.690;23.328;2022-07-10T10:30:54;4.28;;;3.55;;
29984;SDS011;17387;42.690;23.328;2022-07-10T10:33:40;4.63;;;3.38;;
29984;SDS011;17387;42.690;23.328;2022-07-10T10:36:08;6.28;;;3.58;;
29984;SDS011;17387;42.690;23.328;2022-07-10T10:47:03;9.43;;;3.53;;
29984;SDS011;17387;42.690;23.328;2022-07-10T10:52:19;3.97;;;3.10;;
29984;SDS011;17387;42.690;23.328;2022-07-10T11:00:02;9.73;;;3.88;;
29984;SDS011;17387;42.690;23.328;2022-07-10T11:02:32;10.88;;;3.33;;
29984;SDS011;17387;42.690;23.328;2022-07-10T11:07:52;4.38;;;3.00;;
29984;SDS011;17387;42.690;23.328;2022-07-10T11:10:36;4.70;;;3.33;;
29984;SDS011;17387;42.690;23.328;2022-07-10T11:13:02;8.52;;;3.30;;
29984;SDS011;17387;42.690;23.328;2022-07-10T11:15:29;5.68;;;3.13;;
29984;SDS011;17387;42.690;23.328;2022-07-10T11:17:58;6.20;;;3.20;;
29984;SDS011;17387;42.690;23.328;2022-07-10T11:26:35;4.60;;;3.15;;
29984;SDS011;17387;42.690;23.328;2022-07-10T11:29:19;6.07;;;3.72;;
29984;SDS011;17387;42.690;23.328;2022-07-10T11:31:51;6.15;;;3.47;;
29984;SDS011;17387;42.690;23.328;2022-07-10T11:34:23;5.10;;;3.00;;
29984;SDS011;17387;42.690;23.328;2022-07-10T11:36:58;3.10;;;2.78;;
29984;SDS011;17387;42.690;23.328;2022-07-10T11:39:24;4.78;;;3.13;;
29984;SDS011;17387;42.690;23.328;2022-07-10T11:41:49;4.20;;;2.88;;
29984;SDS011;17387;42.690;23.328;2022-07-10T11:44:16;5.72;;;3.35;;
29984;SDS011;17387;42.690;23.328;2022-07-10T11:46:43;4.47;;;3.55;;
29984;SDS011;17387;42.690;23.328;2022-07-10T11:49:10;4.10;;;3.30;;
29984;SDS011;17387;42.690;23.328;2022-07-10T11:51:38;9.15;;;3.80;;
29984;SDS011;17387;42.690;23.328;2022-07-10T11:54:13;7.88;;;3.95;;
29984;SDS011;17387;42.690;23.328;2022-07-10T11:56:46;6.97;;;3.00;;
29984;SDS011;17387;42.690;23.328;2022-07-10T11:59:14;4.90;;;3.08;;
29984;SDS011;17387;42.690;23.328;2022-07-10T12:01:46;4.75;;;2.90;;
29984;SDS011;17387;42.690;23.328;2022-07-10T12:04:14;4.68;;;3.13;;
29984;SDS011;17387;42.690;23.328;2022-07-10T12:06:46;4.28;;;2.70;;
29984;SDS011;17387;42.690;23.328;2022-07-10T12:09:13;4.72;;;2.95;;
29984;SDS011;17387;42.690;23.328;2022-07-10T12:11:40;4.78;;;2.88;;
29984;SDS011;17387;42.690;23.328;2022-07-10T12:16:42;5.03;;;2.45;;
29984;SDS011;17387;42.690;23.328;2022-07-10T12:19:08;3.08;;;2.60;;
29984;SDS011;17387;42.690;23.328;2022-07-10T12:21:38;4.57;;;2.70;;
29984;SDS011;17387;42.690;23.328;2022-07-10T12:24:05;4.07;;;2.58;;
29984;SDS011;17387;42.690;23.328;2022-07-10T12:26:33;4.22;;;2.58;;
29984;SDS011;17387;42.690;23.328;2022-07-10T12:29:00;5.03;;;2.80;;
29984;SDS011;17387;42.690;23.328;2022-07-10T12:31:27;3.97;;;2.63;;
29984;SDS011;17387;42.690;23.328;2022-07-10T12:33:58;3.67;;;2.47;;
29984;SDS011;17387;42.690;23.328;2022-07-10T12:36:40;7.07;;;2.13;;
29984;SDS011;17387;42.690;23.328;2022-07-10T12:39:09;3.67;;;2.40;;
29984;SDS011;17387;42.690;23.328;2022-07-10T12:41:35;4.82;;;2.58;;
29984;SDS011;17387;42.690;23.328;2022-07-10T12:44:39;5.47;;;2.47;;
29984;SDS011;17387;42.690;23.328;2022-07-10T12:47:10;3.13;;;2.38;;
29984;SDS011;17387;42.690;23.328;2022-07-10T12:52:33;7.82;;;2.40;;
29984;SDS011;17387;42.690;23.328;2022-07-10T12:57:50;8.18;;;2.50;;
29984;SDS011;17387;42.690;23.328;2022-07-10T13:00:43;5.40;;;2.63;;
29984;SDS011;17387;42.690;23.328;2022-07-10T13:03:20;7.15;;;1.90;;
29984;SDS011;17387;42.690;23.328;2022-07-10T13:05:49;5.80;;;1.98;;
29984;SDS011;17387;42.690;23.328;2022-07-10T13:08:18;4.18;;;2.03;;
29984;SDS011;17387;42.690;23.328;2022-07-10T13:10:50;4.55;;;1.85;;
29984;SDS011;17387;42.690;23.328;2022-07-10T13:13:17;2.90;;;1.90;;
29984;SDS011;17387;42.690;23.328;2022-07-10T13:15:43;4.97;;;1.40;;
29984;SDS011;17387;42.690;23.328;2022-07-10T13:18:18;3.55;;;2.10;;
29984;SDS011;17387;42.690;23.328;2022-07-10T13:23:12;2.75;;;1.88;;
29984;SDS011;17387;42.690;23.328;2022-07-10T13:25:37;3.78;;;1.73;;
29984;SDS011;17387;42.690;23.328;2022-07-10T13:28:07;2.58;;;1.75;;
29984;SDS011;17387;42.690;23.328;2022-07-10T13:30:34;4.32;;;1.70;;
29984;SDS011;17387;42.690;23.328;2022-07-10T13:33:00;6.22;;;1.90;;
29984;SDS011;17387;42.690;23.328;2022-07-10T13:35:29;4.20;;;1.60;;
29984;SDS011;17387;42.690;23.328;2022-07-10T13:37:55;2.55;;;1.70;;
29984;SDS011;17387;42.690;23.328;2022-07-10T13:40:24;3.92;;;1.58;;
29984;SDS011;17387;42.690;23.328;2022-07-10T13:42:52;3.20;;;1.90;;
29984;SDS011;17387;42.690;23.328;2022-07-10T13:45:18;4.40;;;1.70;;
29984;SDS011;17387;42.690;23.328;2022-07-10T13:47:45;6.22;;;1.83;;
29984;SDS011;17387;42.690;23.328;2022-07-10T13:50:10;4.43;;;1.90;;
29984;SDS011;17387;42.690;23.328;2022-07-10T13:52:36;3.85;;;1.92;;
29984;SDS011;17387;42.690;23.328;2022-07-10T13:55:01;3.28;;;1.92;;
29984;SDS011;17387;42.690;23.328;2022-07-10T13:57:29;4.65;;;1.90;;
29984;SDS011;17387;42.690;23.328;2022-07-10T13:59:55;4.15;;;1.90;;
29984;SDS011;17387;42.690;23.328;2022-07-10T14:02:20;3.50;;;2.05;;
29984;SDS011;17387;42.690;23.328;2022-07-10T14:04:46;5.57;;;1.80;;
29984;SDS011;17387;42.690;23.328;2022-07-10T14:07:12;3.85;;;1.85;;
29984;SDS011;17387;42.690;23.328;2022-07-10T14:09:37;3.50;;;2.08;;
29984;SDS011;17387;42.690;23.328;2022-07-10T14:12:02;4.50;;;2.00;;
29984;SDS011;17387;42.690;23.328;2022-07-10T14:14:28;2.78;;;2.00;;
29984;SDS011;17387;42.690;23.328;2022-07-10T14:16:54;6.32;;;1.70;;
29984;SDS011;17387;42.690;23.328;2022-07-10T14:19:20;2.63;;;1.73;;
29984;SDS011;17387;42.690;23.328;2022-07-10T14:21:45;2.72;;;1.98;;
29984;SDS011;17387;42.690;23.328;2022-07-10T14:24:11;5.13;;;2.42;;
29984;SDS011;17387;42.690;23.328;2022-07-10T14:26:36;3.97;;;1.75;;
29984;SDS011;17387;42.690;23.328;2022-07-10T14:29:02;6.88;;;1.60;;
29984;SDS011;17387;42.690;23.328;2022-07-10T14:31:28;3.53;;;1.60;;
29984;SDS011;17387;42.690;23.328;2022-07-10T14:33:54;4.28;;;2.08;;
29984;SDS011;17387;42.690;23.328;2022-07-10T14:36:19;5.68;;;1.95;;
29984;SDS011;17387;42.690;23.328;2022-07-10T14:38:47;2.30;;;1.65;;
29984;SDS011;17387;42.690;23.328;2022-07-10T14:41:12;4.03;;;1.52;;
29984;SDS011;17387;42.690;23.328;2022-07-10T14:43:38;5.72;;;1.80;;
29984;SDS011;17387;42.690;23.328;2022-07-10T14:46:03;5.35;;;1.98;;
29984;SDS011;17387;42.690;23.328;2022-07-10T14:48:31;3.72;;;1.83;;
29984;SDS011;17387;42.690;23.328;2022-07-10T14:50:58;2.13;;;1.80;;
29984;SDS011;17387;42.690;23.328;2022-07-10T14:53:23;2.05;;;1.83;;
29984;SDS011;17387;42.690;23.328;2022-07-10T14:55:49;3.53;;;1.80;;
29984;SDS011;17387;42.690;23.328;2022-07-10T14:58:14;2.53;;;1.60;;
29984;SDS011;17387;42.690;23.328;2022-07-10T15:00:40;4.70;;;1.88;;
29984;SDS011;17387;42.690;23.328;2022-07-10T15:03:05;3.03;;;1.90;;
29984;SDS011;17387;42.690;23.328;2022-07-10T15:05:31;5.65;;;1.90;;
29984;SDS011;17387;42.690;23.328;2022-07-10T15:07:58;2.13;;;1.58;;
29984;SDS011;17387;42.690;23.328;2022-07-10T15:10:25;4.60;;;2.25;;
29984;SDS011;17387;42.690;23.328;2022-07-10T15:12:50;2.38;;;1.55;;
29984;SDS011;17387;42.690;23.328;2022-07-10T15:15:16;4.70;;;1.50;;
29984;SDS011;17387;42.690;23.328;2022-07-10T15:17:42;2.22;;;1.50;;
29984;SDS011;17387;42.690;23.328;2022-07-10T15:20:08;5.25;;;2.42;;
29984;SDS011;17387;42.690;23.328;2022-07-10T15:22:34;2.83;;;2.20;;